sensor_id;sensor_type;location;lat;lon;timestamp;pressure;altitude;pressure_sealevel;temperature;humidity
23433;BME280;41331;45.412;10.992;2023-03-18T00:02:14;101270.25;;;8.51;67.74
23433;BME280;41331;45.412;10.992;2023-03-18T00:04:41;101280.00;;;8.52;67.67
23433;BME280;41331;45.412;10.992;2023-03-18T00:07:09;101281.34;;;8.54;67.08
23433;BME280;41331;45.412;10.992;2023-03-18T00:09:37;101280.88;;;8.47;67.19
23433;BME280;41331;45.412;10.992;2023-03-18T00:12:04;101277.09;;;8.48;67.62
23433;BME280;41331;45.412;10.992;2023-03-18T00:14:36;101278.41;;;8.51;67.80
23433;BME280;41331;45.412;10.992;2023-03-18T00:17:04;101280.88;;;8.47;67.68
23433;BME280;41331;45.412;10.992;2023-03-18T00:19:32;101276.41;;;8.38;68.03
23433;BME280;41331;45.412;10.992;2023-03-18T00:21:59;101280.50;;;8.35;68.96
23433;BME280;41331;45.412;10.992;2023-03-18T00:24:27;101279.34;;;8.41;68.02
23433;BME280;41331;45.412;10.992;2023-03-18T00:26:54;101277.03;;;8.53;66.09
23433;BME280;41331;45.412;10.992;2023-03-18T00:29:22;101275.69;;;8.51;66.39
23433;BME280;41331;45.412;10.992;2023-03-18T00:31:51;101264.84;;;8.51;66.17
23433;BME280;41331;45.412;10.992;2023-03-18T00:34:19;101263.16;;;8.36;66.30
23433;BME280;41331;45.412;10.992;2023-03-18T00:36:47;101265.03;;;8.36;66.24
23433;BME280;41331;45.412;10.992;2023-03-18T00:39:17;101257.72;;;8.36;66.68
23433;BME280;41331;45.412;10.992;2023-03-18T00:41:47;101264.75;;;8.37;67.21
23433;BME280;41331;45.412;10.992;2023-03-18T00:44:15;101266.13;;;8.35;66.72
23433;BME280;41331;45.412;10.992;2023-03-18T00:46:43;101262.19;;;8.46;66.09
23433;BME280;41331;45.412;10.992;2023-03-18T00:49:11;101270.72;;;8.39;66.94
23433;BME280;41331;45.412;10.992;2023-03-18T00:51:39;101256.84;;;8.41;67.29
23433;BME280;41331;45.412;10.992;2023-03-18T00:54:13;101256.91;;;8.36;67.12
23433;BME280;41331;45.412;10.992;2023-03-18T00:56:44;101255.28;;;8.35;67.41
23433;BME280;41331;45.412;10.992;2023-03-18T00:59:12;101253.16;;;8.31;67.88
23433;BME280;41331;45.412;10.992;2023-03-18T01:01:40;101247.38;;;8.38;67.86
23433;BME280;41331;45.412;10.992;2023-03-18T01:04:07;101246.03;;;8.36;67.77
23433;BME280;41331;45.412;10.992;2023-03-18T01:06:36;101247.72;;;8.31;68.21
23433;BME280;41331;45.412;10.992;2023-03-18T01:09:05;101239.97;;;8.25;68.56
23433;BME280;41331;45.412;10.992;2023-03-18T01:11:35;101236.72;;;8.23;68.40
23433;BME280;41331;45.412;10.992;2023-03-18T01:14:02;101235.84;;;8.09;68.97
23433;BME280;41331;45.412;10.992;2023-03-18T01:16:29;101230.88;;;8.16;68.85
23433;BME280;41331;45.412;10.992;2023-03-18T01:18:57;101237.75;;;8.08;68.90
23433;BME280;41331;45.412;10.992;2023-03-18T01:21:24;101237.81;;;8.03;70.24
23433;BME280;41331;45.412;10.992;2023-03-18T01:23:55;101228.38;;;8.00;70.34
23433;BME280;41331;45.412;10.992;2023-03-18T01:26:23;101225.78;;;7.90;71.50
23433;BME280;41331;45.412;10.992;2023-03-18T01:28:54;101225.63;;;7.82;71.02
23433;BME280;41331;45.412;10.992;2023-03-18T01:31:21;101224.44;;;7.69;70.83
23433;BME280;41331;45.412;10.992;2023-03-18T01:33:53;101224.59;;;7.77;70.12
23433;BME280;41331;45.412;10.992;2023-03-18T01:36:20;101211.19;;;7.86;68.71
23433;BME280;41331;45.412;10.992;2023-03-18T01:39:00;101207.75;;;7.81;69.43
23433;BME280;41331;45.412;10.992;2023-03-18T01:41:29;101204.41;;;7.89;68.75
23433;BME280;41331;45.412;10.992;2023-03-18T01:43:57;101205.34;;;7.79;69.11
23433;BME280;41331;45.412;10.992;2023-03-18T01:46:30;101202.25;;;7.86;68.74
23433;BME280;41331;45.412;10.992;2023-03-18T01:49:03;101192.88;;;7.78;68.65
23433;BME280;41331;45.412;10.992;2023-03-18T01:51:31;101203.19;;;7.76;68.60
23433;BME280;41331;45.412;10.992;2023-03-18T01:54:01;101199.44;;;7.72;68.54
23433;BME280;41331;45.412;10.992;2023-03-18T01:56:29;101198.22;;;7.64;69.66
23433;BME280;41331;45.412;10.992;2023-03-18T01:58:58;101199.00;;;7.65;68.15
23433;BME280;41331;45.412;10.992;2023-03-18T02:01:32;101202.72;;;7.50;68.79
23433;BME280;41331;45.412;10.992;2023-03-18T02:04:07;101196.00;;;7.42;68.69
23433;BME280;41331;45.412;10.992;2023-03-18T02:06:39;101192.63;;;7.32;69.45
23433;BME280;41331;45.412;10.992;2023-03-18T02:09:06;101194.41;;;7.41;69.67
23433;BME280;41331;45.412;10.992;2023-03-18T02:11:38;101185.34;;;7.51;69.79
23433;BME280;41331;45.412;10.992;2023-03-18T02:14:09;101181.22;;;7.35;70.06
23433;BME280;41331;45.412;10.992;2023-03-18T02:16:46;101179.44;;;7.25;71.77
23433;BME280;41331;45.412;10.992;2023-03-18T02:19:46;101181.03;;;7.26;70.96
23433;BME280;41331;45.412;10.992;2023-03-18T02:22:35;101180.97;;;7.31;70.41
23433;BME280;41331;45.412;10.992;2023-03-18T02:28:02;101171.59;;;7.23;69.72
23433;BME280;41331;45.412;10.992;2023-03-18T02:30:45;101176.53;;;7.40;68.39
23433;BME280;41331;45.412;10.992;2023-03-18T02:33:15;101170.09;;;7.36;69.22
23433;BME280;41331;45.412;10.992;2023-03-18T02:35:45;101166.13;;;7.29;68.55
23433;BME280;41331;45.412;10.992;2023-03-18T02:38:14;101162.09;;;7.26;69.91
23433;BME280;41331;45.412;10.992;2023-03-18T02:40:42;101163.34;;;7.10;70.39
23433;BME280;41331;45.412;10.992;2023-03-18T02:46:06;101163.34;;;7.10;69.90
23433;BME280;41331;45.412;10.992;2023-03-18T02:48:39;101158.03;;;6.99;70.23
23433;BME280;41331;45.412;10.992;2023-03-18T02:51:09;101163.16;;;7.01;70.69
23433;BME280;41331;45.412;10.992;2023-03-18T02:53:38;101162.22;;;6.87;71.81
23433;BME280;41331;45.412;10.992;2023-03-18T02:56:05;101158.47;;;6.83;73.05
23433;BME280;41331;45.412;10.992;2023-03-18T02:58:34;101158.66;;;6.91;72.21
23433;BME280;41331;45.412;10.992;2023-03-18T03:01:03;101162.50;;;6.85;72.65
23433;BME280;41331;45.412;10.992;2023-03-18T03:03:31;101148.06;;;6.95;71.68
23433;BME280;41331;45.412;10.992;2023-03-18T03:05:59;101161.22;;;7.07;71.21
23433;BME280;41331;45.412;10.992;2023-03-18T03:08:27;101159.16;;;6.98;71.06
23433;BME280;41331;45.412;10.992;2023-03-18T03:10:55;101150.59;;;6.86;72.34
23433;BME280;41331;45.412;10.992;2023-03-18T03:13:23;101156.72;;;6.68;72.86
23433;BME280;41331;45.412;10.992;2023-03-18T03:15:52;101154.16;;;6.82;72.74
23433;BME280;41331;45.412;10.992;2023-03-18T03:18:20;101155.50;;;6.84;72.45
23433;BME280;41331;45.412;10.992;2023-03-18T03:20:49;101161.81;;;6.74;72.65
23433;BME280;41331;45.412;10.992;2023-03-18T03:23:19;101161.56;;;6.71;73.62
23433;BME280;41331;45.412;10.992;2023-03-18T03:25:47;101155.72;;;6.59;72.93
23433;BME280;41331;45.412;10.992;2023-03-18T03:28:15;101157.94;;;6.52;73.90
23433;BME280;41331;45.412;10.992;2023-03-18T03:30:43;101151.41;;;6.58;74.65
23433;BME280;41331;45.412;10.992;2023-03-18T03:33:11;101156.19;;;6.66;73.85
23433;BME280;41331;45.412;10.992;2023-03-18T03:35:39;101156.78;;;6.63;73.03
23433;BME280;41331;45.412;10.992;2023-03-18T03:38:07;101156.50;;;6.64;73.35
23433;BME280;41331;45.412;10.992;2023-03-18T03:40:36;101149.63;;;6.72;73.02
23433;BME280;41331;45.412;10.992;2023-03-18T03:43:04;101149.41;;;6.68;74.46
23433;BME280;41331;45.412;10.992;2023-03-18T03:45:31;101147.63;;;6.59;73.34
23433;BME280;41331;45.412;10.992;2023-03-18T03:47:59;101157.34;;;6.60;73.26
23433;BME280;41331;45.412;10.992;2023-03-18T03:50:27;101160.81;;;6.65;73.29
23433;BME280;41331;45.412;10.992;2023-03-18T03:52:55;101154.28;;;6.66;72.06
23433;BME280;41331;45.412;10.992;2023-03-18T03:55:23;101156.94;;;6.71;71.40
23433;BME280;41331;45.412;10.992;2023-03-18T03:57:53;101148.22;;;6.80;71.81
23433;BME280;41331;45.412;10.992;2023-03-18T04:00:22;101154.06;;;6.63;71.50
23433;BME280;41331;45.412;10.992;2023-03-18T04:02:51;101153.03;;;6.59;71.66
23433;BME280;41331;45.412;10.992;2023-03-18T04:05:22;101150.91;;;6.51;71.54
23433;BME280;41331;45.412;10.992;2023-03-18T04:07:50;101135.97;;;6.29;72.89
23433;BME280;41331;45.412;10.992;2023-03-18T04:10:23;101153.16;;;6.43;71.49
23433;BME280;41331;45.412;10.992;2023-03-18T04:12:53;101155.34;;;6.36;71.81
23433;BME280;41331;45.412;10.992;2023-03-18T04:15:21;101153.09;;;6.48;71.54
23433;BME280;41331;45.412;10.992;2023-03-18T04:17:51;101152.31;;;6.48;70.44
23433;BME280;41331;45.412;10.992;2023-03-18T04:20:19;101149.50;;;6.58;70.18
23433;BME280;41331;45.412;10.992;2023-03-18T04:22:48;101151.22;;;6.78;69.89
23433;BME280;41331;45.412;10.992;2023-03-18T04:25:17;101151.94;;;6.60;71.39
23433;BME280;41331;45.412;10.992;2023-03-18T04:27:46;101160.47;;;6.72;71.31
23433;BME280;41331;45.412;10.992;2023-03-18T04:30:15;101157.00;;;6.66;72.56
23433;BME280;41331;45.412;10.992;2023-03-18T04:33:10;101148.34;;;6.35;72.35
23433;BME280;41331;45.412;10.992;2023-03-18T04:35:39;101143.94;;;6.44;73.91
23433;BME280;41331;45.412;10.992;2023-03-18T04:38:11;101149.06;;;6.46;71.63
23433;BME280;41331;45.412;10.992;2023-03-18T04:40:39;101147.16;;;6.46;70.85
23433;BME280;41331;45.412;10.992;2023-03-18T04:43:07;101150.75;;;6.37;71.45
23433;BME280;41331;45.412;10.992;2023-03-18T04:45:36;101154.50;;;6.41;71.99
23433;BME280;41331;45.412;10.992;2023-03-18T04:48:04;101151.50;;;6.42;73.29
23433;BME280;41331;45.412;10.992;2023-03-18T04:50:36;101144.75;;;6.45;73.48
23433;BME280;41331;45.412;10.992;2023-03-18T04:53:07;101149.66;;;6.43;72.47
23433;BME280;41331;45.412;10.992;2023-03-18T04:55:35;101159.84;;;6.51;72.77
23433;BME280;41331;45.412;10.992;2023-03-18T04:58:06;101153.66;;;6.45;73.02
23433;BME280;41331;45.412;10.992;2023-03-18T05:00:38;101156.19;;;6.32;73.00
23433;BME280;41331;45.412;10.992;2023-03-18T05:03:22;101151.19;;;6.15;74.71
23433;BME280;41331;45.412;10.992;2023-03-18T05:05:50;101150.13;;;6.11;74.11
23433;BME280;41331;45.412;10.992;2023-03-18T05:08:23;101151.97;;;6.20;73.71
23433;BME280;41331;45.412;10.992;2023-03-18T05:10:51;101157.44;;;6.10;74.76
23433;BME280;41331;45.412;10.992;2023-03-18T05:13:19;101154.91;;;6.24;73.33
23433;BME280;41331;45.412;10.992;2023-03-18T05:15:47;101148.56;;;6.05;74.38
23433;BME280;41331;45.412;10.992;2023-03-18T05:18:15;101166.19;;;5.92;74.35
23433;BME280;41331;45.412;10.992;2023-03-18T05:20:46;101159.44;;;5.94;75.65
23433;BME280;41331;45.412;10.992;2023-03-18T05:23:16;101155.25;;;6.12;75.25
23433;BME280;41331;45.412;10.992;2023-03-18T05:25:49;101161.50;;;6.13;74.17
23433;BME280;41331;45.412;10.992;2023-03-18T05:28:20;101172.16;;;6.33;73.81
23433;BME280;41331;45.412;10.992;2023-03-18T05:31:06;101161.09;;;6.30;73.43
23433;BME280;41331;45.412;10.992;2023-03-18T05:33:37;101167.75;;;6.42;72.93
23433;BME280;41331;45.412;10.992;2023-03-18T05:36:05;101167.78;;;6.37;72.81
23433;BME280;41331;45.412;10.992;2023-03-18T05:38:38;101166.41;;;6.40;71.80
23433;BME280;41331;45.412;10.992;2023-03-18T05:41:05;101174.50;;;6.45;72.24
23433;BME280;41331;45.412;10.992;2023-03-18T05:43:37;101162.16;;;6.34;72.32
23433;BME280;41331;45.412;10.992;2023-03-18T05:46:05;101168.47;;;6.19;73.95
23433;BME280;41331;45.412;10.992;2023-03-18T05:48:51;101169.19;;;6.30;74.84
23433;BME280;41331;45.412;10.992;2023-03-18T05:51:20;101176.75;;;6.67;73.19
23433;BME280;41331;45.412;10.992;2023-03-18T05:53:48;101178.69;;;6.90;72.76
23433;BME280;41331;45.412;10.992;2023-03-18T05:56:25;101180.50;;;7.48;71.96
23433;BME280;41331;45.412;10.992;2023-03-18T05:58:57;101177.16;;;7.56;70.36
23433;BME280;41331;45.412;10.992;2023-03-18T06:01:32;101181.47;;;7.38;71.13
23433;BME280;41331;45.412;10.992;2023-03-18T06:04:01;101176.13;;;7.04;72.96
23433;BME280;41331;45.412;10.992;2023-03-18T06:06:29;101172.84;;;7.07;73.90
23433;BME280;41331;45.412;10.992;2023-03-18T06:08:57;101172.94;;;6.97;74.65
23433;BME280;41331;45.412;10.992;2023-03-18T06:11:27;101167.59;;;6.92;75.61
23433;BME280;41331;45.412;10.992;2023-03-18T06:13:55;101169.16;;;6.98;75.76
23433;BME280;41331;45.412;10.992;2023-03-18T06:16:23;101176.75;;;6.96;75.64
23433;BME280;41331;45.412;10.992;2023-03-18T06:18:55;101174.63;;;6.93;77.09
23433;BME280;41331;45.412;10.992;2023-03-18T06:21:24;101169.97;;;7.22;75.31
23433;BME280;41331;45.412;10.992;2023-03-18T06:23:52;101174.13;;;7.39;73.95
23433;BME280;41331;45.412;10.992;2023-03-18T06:26:21;101171.13;;;7.40;73.86
23433;BME280;41331;45.412;10.992;2023-03-18T06:28:49;101174.88;;;7.44;73.69
23433;BME280;41331;45.412;10.992;2023-03-18T06:31:17;101180.56;;;7.43;73.28
23433;BME280;41331;45.412;10.992;2023-03-18T06:33:44;101183.34;;;7.38;73.64
23433;BME280;41331;45.412;10.992;2023-03-18T06:36:15;101192.75;;;7.45;73.10
23433;BME280;41331;45.412;10.992;2023-03-18T06:38:48;101188.72;;;7.86;71.71
23433;BME280;41331;45.412;10.992;2023-03-18T06:41:18;101190.78;;;8.13;70.19
23433;BME280;41331;45.412;10.992;2023-03-18T06:43:58;101180.53;;;8.80;68.45
23433;BME280;41331;45.412;10.992;2023-03-18T06:46:28;101197.47;;;9.73;64.99
23433;BME280;41331;45.412;10.992;2023-03-18T06:48:58;101195.06;;;9.85;62.53
23433;BME280;41331;45.412;10.992;2023-03-18T06:51:30;101187.00;;;10.75;59.66
23433;BME280;41331;45.412;10.992;2023-03-18T06:53:59;101189.47;;;11.56;55.98
23433;BME280;41331;45.412;10.992;2023-03-18T06:56:29;101188.75;;;11.82;53.56
23433;BME280;41331;45.412;10.992;2023-03-18T06:59:11;101183.00;;;12.44;51.55
23433;BME280;41331;45.412;10.992;2023-03-18T07:01:38;101190.94;;;13.01;50.56
23433;BME280;41331;45.412;10.992;2023-03-18T07:04:07;101192.66;;;13.23;50.03
23433;BME280;41331;45.412;10.992;2023-03-18T07:06:35;101193.09;;;13.34;49.28
23433;BME280;41331;45.412;10.992;2023-03-18T07:09:04;101194.84;;;13.38;48.38
23433;BME280;41331;45.412;10.992;2023-03-18T07:11:31;101199.41;;;13.55;46.32
23433;BME280;41331;45.412;10.992;2023-03-18T07:14:05;101202.72;;;14.62;43.61
23433;BME280;41331;45.412;10.992;2023-03-18T07:16:35;101201.19;;;15.67;41.87
23433;BME280;41331;45.412;10.992;2023-03-18T07:19:03;101187.28;;;16.69;39.08
23433;BME280;41331;45.412;10.992;2023-03-18T07:21:31;101192.25;;;17.23;38.91
23433;BME280;41331;45.412;10.992;2023-03-18T07:23:58;101193.13;;;18.48;37.26
23433;BME280;41331;45.412;10.992;2023-03-18T07:26:25;101202.75;;;18.77;35.39
23433;BME280;41331;45.412;10.992;2023-03-18T07:28:53;101200.81;;;18.78;35.90
23433;BME280;41331;45.412;10.992;2023-03-18T07:31:21;101208.13;;;18.51;36.07
23433;BME280;41331;45.412;10.992;2023-03-18T07:33:49;101203.25;;;18.63;37.03
23433;BME280;41331;45.412;10.992;2023-03-18T07:36:16;101204.88;;;18.84;35.24
23433;BME280;41331;45.412;10.992;2023-03-18T07:38:44;101204.75;;;19.23;35.42
23433;BME280;41331;45.412;10.992;2023-03-18T07:41:11;101204.34;;;18.98;35.81
23433;BME280;41331;45.412;10.992;2023-03-18T07:43:39;101213.47;;;18.82;35.10
23433;BME280;41331;45.412;10.992;2023-03-18T07:46:06;101210.97;;;19.42;35.17
23433;BME280;41331;45.412;10.992;2023-03-18T07:48:34;101214.88;;;19.61;34.94
23433;BME280;41331;45.412;10.992;2023-03-18T07:51:01;101213.59;;;20.41;33.50
23433;BME280;41331;45.412;10.992;2023-03-18T07:53:29;101212.84;;;19.84;33.21
23433;BME280;41331;45.412;10.992;2023-03-18T07:55:56;101219.06;;;19.28;35.31
23433;BME280;41331;45.412;10.992;2023-03-18T07:58:24;101220.75;;;19.36;35.26
23433;BME280;41331;45.412;10.992;2023-03-18T08:00:52;101227.50;;;18.93;36.15
23433;BME280;41331;45.412;10.992;2023-03-18T08:03:20;101235.81;;;18.19;36.03
23433;BME280;41331;45.412;10.992;2023-03-18T08:05:47;101235.63;;;18.28;37.49
23433;BME280;41331;45.412;10.992;2023-03-18T08:08:14;101232.22;;;18.93;35.97
23433;BME280;41331;45.412;10.992;2023-03-18T08:10:42;101236.13;;;18.72;35.39
23433;BME280;41331;45.412;10.992;2023-03-18T08:13:10;101234.00;;;19.50;34.78
23433;BME280;41331;45.412;10.992;2023-03-18T08:15:39;101232.66;;;19.40;36.24
23433;BME280;41331;45.412;10.992;2023-03-18T08:18:07;101226.22;;;20.09;34.09
23433;BME280;41331;45.412;10.992;2023-03-18T08:20:35;101218.00;;;20.46;33.68
23433;BME280;41331;45.412;10.992;2023-03-18T08:23:04;101229.72;;;21.03;33.75
23433;BME280;41331;45.412;10.992;2023-03-18T08:25:31;101227.72;;;21.96;31.42
23433;BME280;41331;45.412;10.992;2023-03-18T08:27:59;101219.38;;;21.37;32.09
23433;BME280;41331;45.412;10.992;2023-03-18T08:30:26;101230.28;;;22.26;30.59
23433;BME280;41331;45.412;10.992;2023-03-18T08:32:55;101227.75;;;22.00;30.64
23433;BME280;41331;45.412;10.992;2023-03-18T08:35:23;101230.88;;;22.78;29.41
23433;BME280;41331;45.412;10.992;2023-03-18T08:37:53;101227.25;;;22.56;29.67
23433;BME280;41331;45.412;10.992;2023-03-18T08:40:21;101233.75;;;23.28;29.80
23433;BME280;41331;45.412;10.992;2023-03-18T08:42:48;101230.44;;;22.69;30.46
23433;BME280;41331;45.412;10.992;2023-03-18T08:45:15;101234.22;;;21.59;31.00
23433;BME280;41331;45.412;10.992;2023-03-18T08:47:43;101224.88;;;20.56;32.54
23433;BME280;41331;45.412;10.992;2023-03-18T08:50:11;101234.25;;;20.48;32.19
23433;BME280;41331;45.412;10.992;2023-03-18T08:52:40;101235.22;;;20.62;33.98
23433;BME280;41331;45.412;10.992;2023-03-18T08:55:07;101225.91;;;21.15;31.67
23433;BME280;41331;45.412;10.992;2023-03-18T08:57:36;101225.66;;;21.31;32.76
23433;BME280;41331;45.412;10.992;2023-03-18T09:00:05;101224.75;;;21.23;31.53
23433;BME280;41331;45.412;10.992;2023-03-18T09:02:32;101229.84;;;19.14;34.31
23433;BME280;41331;45.412;10.992;2023-03-18T09:05:00;101235.66;;;19.09;35.42
23433;BME280;41331;45.412;10.992;2023-03-18T09:07:27;101225.41;;;19.32;34.74
23433;BME280;41331;45.412;10.992;2023-03-18T09:09:55;101227.56;;;20.49;33.66
23433;BME280;41331;45.412;10.992;2023-03-18T09:12:22;101224.00;;;21.26;33.40
23433;BME280;41331;45.412;10.992;2023-03-18T09:14:50;101228.56;;;22.07;31.32
23433;BME280;41331;45.412;10.992;2023-03-18T09:17:18;101224.56;;;21.94;31.59
23433;BME280;41331;45.412;10.992;2023-03-18T09:19:46;101218.97;;;21.35;32.27
23433;BME280;41331;45.412;10.992;2023-03-18T09:22:13;101223.28;;;20.88;33.55
23433;BME280;41331;45.412;10.992;2023-03-18T09:24:44;101231.84;;;20.46;33.38
23433;BME280;41331;45.412;10.992;2023-03-18T09:27:11;101224.88;;;20.56;33.20
23433;BME280;41331;45.412;10.992;2023-03-18T09:29:39;101223.38;;;21.43;31.65
23433;BME280;41331;45.412;10.992;2023-03-18T09:32:06;101225.84;;;21.52;31.61
23433;BME280;41331;45.412;10.992;2023-03-18T09:34:34;101215.00;;;22.79;30.16
23433;BME280;41331;45.412;10.992;2023-03-18T09:37:02;101214.94;;;22.50;30.74
23433;BME280;41331;45.412;10.992;2023-03-18T09:39:29;101214.72;;;22.07;30.54
23433;BME280;41331;45.412;10.992;2023-03-18T09:44:50;101225.50;;;22.23;30.25
23433;BME280;41331;45.412;10.992;2023-03-18T09:52:46;101228.94;;;22.93;30.35
23433;BME280;41331;45.412;10.992;2023-03-18T09:55:25;101213.91;;;23.83;29.53
23433;BME280;41331;45.412;10.992;2023-03-18T09:57:58;101216.28;;;23.74;30.22
23433;BME280;41331;45.412;10.992;2023-03-18T10:00:38;101228.97;;;23.00;30.34
23433;BME280;41331;45.412;10.992;2023-03-18T10:03:13;101225.22;;;22.42;30.98
23433;BME280;41331;45.412;10.992;2023-03-18T10:05:59;101222.25;;;23.62;29.18
23433;BME280;41331;45.412;10.992;2023-03-18T10:08:59;101215.91;;;23.61;29.45
23433;BME280;41331;45.412;10.992;2023-03-18T10:11:36;101212.69;;;23.84;28.39
23433;BME280;41331;45.412;10.992;2023-03-18T10:14:17;101206.38;;;23.62;27.96
23433;BME280;41331;45.412;10.992;2023-03-18T10:17:04;101215.91;;;23.22;29.28
23433;BME280;41331;45.412;10.992;2023-03-18T10:19:33;101217.47;;;23.44;28.50
23433;BME280;41331;45.412;10.992;2023-03-18T10:25:20;101215.91;;;23.50;28.89
23433;BME280;41331;45.412;10.992;2023-03-18T10:31:03;101211.16;;;23.22;28.64
23433;BME280;41331;45.412;10.992;2023-03-18T10:33:55;101206.22;;;22.44;29.34
23433;BME280;41331;45.412;10.992;2023-03-18T10:39:14;101199.47;;;22.45;29.15
23433;BME280;41331;45.412;10.992;2023-03-18T10:41:47;101204.53;;;22.22;29.82
23433;BME280;41331;45.412;10.992;2023-03-18T10:44:23;101195.38;;;22.18;29.83
23433;BME280;41331;45.412;10.992;2023-03-18T10:47:00;101200.66;;;22.41;29.86
23433;BME280;41331;45.412;10.992;2023-03-18T10:49:32;101203.59;;;22.00;29.21
23433;BME280;41331;45.412;10.992;2023-03-18T10:52:13;101193.59;;;21.30;31.07
23433;BME280;41331;45.412;10.992;2023-03-18T10:54:45;101196.53;;;22.10;29.93
23433;BME280;41331;45.412;10.992;2023-03-18T10:57:20;101196.34;;;22.54;29.57
23433;BME280;41331;45.412;10.992;2023-03-18T10:59:49;101199.50;;;21.76;30.78
23433;BME280;41331;45.412;10.992;2023-03-18T11:02:32;101202.09;;;21.07;32.02
23433;BME280;41331;45.412;10.992;2023-03-18T11:05:04;101190.72;;;21.67;31.90
23433;BME280;41331;45.412;10.992;2023-03-18T11:07:58;101187.66;;;22.70;30.07
23433;BME280;41331;45.412;10.992;2023-03-18T11:10:31;101199.22;;;21.95;31.68
23433;BME280;41331;45.412;10.992;2023-03-18T11:13:01;101192.25;;;22.23;31.53
23433;BME280;41331;45.412;10.992;2023-03-18T11:15:35;101193.66;;;23.54;29.00
23433;BME280;41331;45.412;10.992;2023-03-18T11:18:04;101197.91;;;22.59;30.73
23433;BME280;41331;45.412;10.992;2023-03-18T11:20:38;101189.16;;;21.21;32.15
23433;BME280;41331;45.412;10.992;2023-03-18T11:26:24;101188.31;;;22.28;32.07
23433;BME280;41331;45.412;10.992;2023-03-18T11:29:04;101199.34;;;22.17;31.68
23433;BME280;41331;45.412;10.992;2023-03-18T11:31:49;101186.31;;;21.55;34.19
23433;BME280;41331;45.412;10.992;2023-03-18T11:34:17;101186.06;;;22.72;31.42
23433;BME280;41331;45.412;10.992;2023-03-18T11:37:04;101180.97;;;21.91;31.70
23433;BME280;41331;45.412;10.992;2023-03-18T11:39:38;101179.06;;;21.43;31.83
23433;BME280;41331;45.412;10.992;2023-03-18T11:42:36;101176.81;;;21.12;32.53
23433;BME280;41331;45.412;10.992;2023-03-18T11:45:29;101185.78;;;20.98;32.65
23433;BME280;41331;45.412;10.992;2023-03-18T11:47:56;101175.88;;;20.56;33.46
23433;BME280;41331;45.412;10.992;2023-03-18T11:50:32;101166.13;;;20.66;32.94
23433;BME280;41331;45.412;10.992;2023-03-18T11:56:12;101158.47;;;20.89;33.72
23433;BME280;41331;45.412;10.992;2023-03-18T12:01:33;101154.16;;;20.95;33.49
23433;BME280;41331;45.412;10.992;2023-03-18T12:07:50;101139.91;;;20.53;34.03
23433;BME280;41331;45.412;10.992;2023-03-18T12:15:47;101129.97;;;21.33;33.58
23433;BME280;41331;45.412;10.992;2023-03-18T12:24:19;101112.53;;;20.44;33.79
23433;BME280;41331;45.412;10.992;2023-03-18T12:27:44;101117.72;;;20.86;34.17
23433;BME280;41331;45.412;10.992;2023-03-18T12:30:06;101114.50;;;20.43;33.41
23433;BME280;41331;45.412;10.992;2023-03-18T12:43:40;101098.72;;;20.85;32.31
23433;BME280;41331;45.412;10.992;2023-03-18T12:49:00;101093.41;;;21.13;33.16
23433;BME280;41331;45.412;10.992;2023-03-18T12:51:42;101089.25;;;21.37;33.52
23433;BME280;41331;45.412;10.992;2023-03-18T12:54:17;101081.06;;;21.55;33.40
23433;BME280;41331;45.412;10.992;2023-03-18T12:56:49;101080.66;;;21.57;32.69
23433;BME280;41331;45.412;10.992;2023-03-18T12:59:29;101082.22;;;21.51;31.36
23433;BME280;41331;45.412;10.992;2023-03-18T13:04:32;101080.97;;;21.41;30.50
23433;BME280;41331;45.412;10.992;2023-03-18T13:07:14;101079.81;;;21.45;31.07
23433;BME280;41331;45.412;10.992;2023-03-18T13:09:45;101074.78;;;21.07;32.49
23433;BME280;41331;45.412;10.992;2023-03-18T13:12:19;101070.56;;;21.27;31.82
23433;BME280;41331;45.412;10.992;2023-03-18T13:14:59;101074.38;;;21.05;31.10
23433;BME280;41331;45.412;10.992;2023-03-18T13:17:37;101076.34;;;21.04;32.90
23433;BME280;41331;45.412;10.992;2023-03-18T13:20:15;101071.34;;;21.24;31.87
23433;BME280;41331;45.412;10.992;2023-03-18T13:28:54;101066.63;;;21.28;32.35
23433;BME280;41331;45.412;10.992;2023-03-18T13:34:34;101063.38;;;21.15;33.24
23433;BME280;41331;45.412;10.992;2023-03-18T13:40:05;101064.78;;;20.10;33.72
23433;BME280;41331;45.412;10.992;2023-03-18T13:42:41;101058.97;;;20.56;33.93
23433;BME280;41331;45.412;10.992;2023-03-18T13:45:28;101052.06;;;20.80;33.04
23433;BME280;41331;45.412;10.992;2023-03-18T13:48:06;101058.97;;;21.04;33.17
23433;BME280;41331;45.412;10.992;2023-03-18T13:50:53;101050.00;;;20.29;33.43
23433;BME280;41331;45.412;10.992;2023-03-18T13:53:27;101052.63;;;20.55;32.85
23433;BME280;41331;45.412;10.992;2023-03-18T13:58:26;101047.75;;;20.86;33.75
23433;BME280;41331;45.412;10.992;2023-03-18T14:13:43;101031.63;;;19.76;33.66
23433;BME280;41331;45.412;10.992;2023-03-18T14:16:12;101026.34;;;19.98;34.82
23433;BME280;41331;45.412;10.992;2023-03-18T14:18:41;101026.25;;;20.28;34.68
23433;BME280;41331;45.412;10.992;2023-03-18T14:21:25;101024.44;;;20.42;33.07
23433;BME280;41331;45.412;10.992;2023-03-18T14:24:33;101019.13;;;20.23;33.49
23433;BME280;41331;45.412;10.992;2023-03-18T14:29:40;101025.13;;;20.29;32.93
23433;BME280;41331;45.412;10.992;2023-03-18T14:38:10;101028.59;;;19.85;33.59
23433;BME280;41331;45.412;10.992;2023-03-18T14:40:43;101025.56;;;19.63;33.52
23433;BME280;41331;45.412;10.992;2023-03-18T14:43:27;101027.84;;;19.58;35.00
23433;BME280;41331;45.412;10.992;2023-03-18T14:46:00;101021.50;;;19.27;34.33
23433;BME280;41331;45.412;10.992;2023-03-18T14:48:33;101022.78;;;19.33;34.96